sensor_id;sensor_type;location;lat;lon;timestamp;temperature;humidity
74359;DHT22;62792;46.236;6.040;2023-05-07T00:04:54;25.80;53.40
74359;DHT22;62792;46.236;6.040;2023-05-07T00:09:58;25.70;53.30
74359;DHT22;62792;46.236;6.040;2023-05-07T00:15:03;25.80;53.30
74359;DHT22;62792;46.236;6.040;2023-05-07T00:20:08;25.70;53.40
74359;DHT22;62792;46.236;6.040;2023-05-07T00:25:11;25.70;53.30
74359;DHT22;62792;46.236;6.040;2023-05-07T00:30:16;25.70;53.40
74359;DHT22;62792;46.236;6.040;2023-05-07T00:35:19;25.70;53.30
74359;DHT22;62792;46.236;6.040;2023-05-07T00:40:22;25.70;53.20
74359;DHT22;62792;46.236;6.040;2023-05-07T00:45:27;25.70;53.30
74359;DHT22;62792;46.236;6.040;2023-05-07T00:50:30;25.70;53.20
74359;DHT22;62792;46.236;6.040;2023-05-07T00:55:34;25.70;53.10
74359;DHT22;62792;46.236;6.040;2023-05-07T01:00:39;25.60;53.40
74359;DHT22;62792;46.236;6.040;2023-05-07T01:05:42;25.70;53.20
74359;DHT22;62792;46.236;6.040;2023-05-07T01:10:46;25.70;53.10
74359;DHT22;62792;46.236;6.040;2023-05-07T01:15:51;25.60;53.30
74359;DHT22;62792;46.236;6.040;2023-05-07T01:20:53;25.70;53.20
74359;DHT22;62792;46.236;6.040;2023-05-07T01:25:59;25.60;53.20
74359;DHT22;62792;46.236;6.040;2023-05-07T01:31:02;25.70;53.10
74359;DHT22;62792;46.236;6.040;2023-05-07T01:36:07;25.60;53.30
74359;DHT22;62792;46.236;6.040;2023-05-07T01:41:13;25.60;53.40
74359;DHT22;62792;46.236;6.040;2023-05-07T01:46:16;25.50;53.20
74359;DHT22;62792;46.236;6.040;2023-05-07T01:51:20;25.70;53.30
74359;DHT22;62792;46.236;6.040;2023-05-07T01:56:25;25.60;53.10
74359;DHT22;62792;46.236;6.040;2023-05-07T02:01:28;25.60;53.00
74359;DHT22;62792;46.236;6.040;2023-05-07T02:06:31;25.60;53.10
74359;DHT22;62792;46.236;6.040;2023-05-07T02:11:35;25.60;53.10
74359;DHT22;62792;46.236;6.040;2023-05-07T02:16:38;25.60;53.10
74359;DHT22;62792;46.236;6.040;2023-05-07T02:21:41;25.50;53.00
74359;DHT22;62792;46.236;6.040;2023-05-07T02:26:45;25.60;52.90
74359;DHT22;62792;46.236;6.040;2023-05-07T02:31:48;25.50;53.10
74359;DHT22;62792;46.236;6.040;2023-05-07T02:36:52;25.50;52.90
74359;DHT22;62792;46.236;6.040;2023-05-07T02:41:56;25.60;53.10
74359;DHT22;62792;46.236;6.040;2023-05-07T02:47:00;25.50;52.80
74359;DHT22;62792;46.236;6.040;2023-05-07T02:52:02;25.50;53.00
74359;DHT22;62792;46.236;6.040;2023-05-07T02:57:07;25.50;52.80
74359;DHT22;62792;46.236;6.040;2023-05-07T03:02:10;25.50;52.90
74359;DHT22;62792;46.236;6.040;2023-05-07T03:07:13;25.50;52.90
74359;DHT22;62792;46.236;6.040;2023-05-07T03:12:18;25.50;52.80
74359;DHT22;62792;46.236;6.040;2023-05-07T03:17:21;25.50;52.70
74359;DHT22;62792;46.236;6.040;2023-05-07T03:22:24;25.50;52.70
74359;DHT22;62792;46.236;6.040;2023-05-07T03:27:28;25.50;52.90
74359;DHT22;62792;46.236;6.040;2023-05-07T03:32:31;25.50;52.70
74359;DHT22;62792;46.236;6.040;2023-05-07T03:37:34;25.50;52.40
74359;DHT22;62792;46.236;6.040;2023-05-07T03:42:39;25.50;52.50
74359;DHT22;62792;46.236;6.040;2023-05-07T03:47:42;25.50;52.50
74359;DHT22;62792;46.236;6.040;2023-05-07T03:52:45;25.40;52.50
74359;DHT22;62792;46.236;6.040;2023-05-07T03:57:49;25.50;52.30
74359;DHT22;62792;46.236;6.040;2023-05-07T04:02:52;25.50;52.10
74359;DHT22;62792;46.236;6.040;2023-05-07T04:07:55;25.40;52.20
74359;DHT22;62792;46.236;6.040;2023-05-07T04:12:59;25.50;52.40
74359;DHT22;62792;46.236;6.040;2023-05-07T04:18:02;25.40;52.00
74359;DHT22;62792;46.236;6.040;2023-05-07T04:23:05;25.40;51.80
74359;DHT22;62792;46.236;6.040;2023-05-07T04:28:09;25.30;51.70
74359;DHT22;62792;46.236;6.040;2023-05-07T04:33:13;25.40;51.80
74359;DHT22;62792;46.236;6.040;2023-05-07T04:38:18;25.50;51.60
74359;DHT22;62792;46.236;6.040;2023-05-07T04:43:22;25.40;51.70
74359;DHT22;62792;46.236;6.040;2023-05-07T04:48:25;25.40;51.60
74359;DHT22;62792;46.236;6.040;2023-05-07T04:53:28;25.40;51.90
74359;DHT22;62792;46.236;6.040;2023-05-07T04:58:32;25.40;51.40
74359;DHT22;62792;46.236;6.040;2023-05-07T05:03:35;25.40;51.60
74359;DHT22;62792;46.236;6.040;2023-05-07T05:08:39;25.40;51.60
74359;DHT22;62792;46.236;6.040;2023-05-07T05:13:43;25.40;51.40
74359;DHT22;62792;46.236;6.040;2023-05-07T05:18:46;25.50;51.70
74359;DHT22;62792;46.236;6.040;2023-05-07T05:23:49;25.40;51.30
74359;DHT22;62792;46.236;6.040;2023-05-07T05:28:54;25.50;51.50
74359;DHT22;62792;46.236;6.040;2023-05-07T05:33:57;25.50;51.30
74359;DHT22;62792;46.236;6.040;2023-05-07T05:39:00;25.50;51.60
74359;DHT22;62792;46.236;6.040;2023-05-07T05:44:04;25.50;51.40
74359;DHT22;62792;46.236;6.040;2023-05-07T05:49:07;25.50;51.20
74359;DHT22;62792;46.236;6.040;2023-05-07T05:54:10;25.50;51.20
74359;DHT22;62792;46.236;6.040;2023-05-07T05:59:14;25.50;51.20
74359;DHT22;62792;46.236;6.040;2023-05-07T06:04:17;25.60;51.30
74359;DHT22;62792;46.236;6.040;2023-05-07T06:09:20;25.50;51.00
74359;DHT22;62792;46.236;6.040;2023-05-07T06:14:24;25.60;51.10
74359;DHT22;62792;46.236;6.040;2023-05-07T06:19:27;25.50;51.10
74359;DHT22;62792;46.236;6.040;2023-05-07T06:24:30;25.60;51.20
74359;DHT22;62792;46.236;6.040;2023-05-07T06:29:34;25.50;51.30
74359;DHT22;62792;46.236;6.040;2023-05-07T06:34:37;25.60;50.90
74359;DHT22;62792;46.236;6.040;2023-05-07T06:39:40;25.60;51.00
74359;DHT22;62792;46.236;6.040;2023-05-07T06:44:45;25.70;51.10
74359;DHT22;62792;46.236;6.040;2023-05-07T06:49:47;25.60;50.90
74359;DHT22;62792;46.236;6.040;2023-05-07T06:54:50;25.60;50.90
74359;DHT22;62792;46.236;6.040;2023-05-07T06:59:54;25.70;50.80
74359;DHT22;62792;46.236;6.040;2023-05-07T07:04:57;25.60;50.90
74359;DHT22;62792;46.236;6.040;2023-05-07T07:10:00;25.60;51.00
74359;DHT22;62792;46.236;6.040;2023-05-07T07:15:06;25.70;50.60
74359;DHT22;62792;46.236;6.040;2023-05-07T07:20:10;25.80;50.70
74359;DHT22;62792;46.236;6.040;2023-05-07T07:25:13;25.80;50.90
74359;DHT22;62792;46.236;6.040;2023-05-07T07:30:20;25.80;50.60
74359;DHT22;62792;46.236;6.040;2023-05-07T07:35:23;25.70;50.60
74359;DHT22;62792;46.236;6.040;2023-05-07T07:40:26;25.80;50.50
74359;DHT22;62792;46.236;6.040;2023-05-07T07:45:30;25.90;50.40
74359;DHT22;62792;46.236;6.040;2023-05-07T07:50:33;25.80;50.40
74359;DHT22;62792;46.236;6.040;2023-05-07T07:55:46;25.80;50.50
74359;DHT22;62792;46.236;6.040;2023-05-07T08:00:50;25.80;50.60
74359;DHT22;62792;46.236;6.040;2023-05-07T08:05:53;25.90;50.70
74359;DHT22;62792;46.236;6.040;2023-05-07T08:10:56;25.90;50.60
74359;DHT22;62792;46.236;6.040;2023-05-07T08:16:00;25.90;50.40
74359;DHT22;62792;46.236;6.040;2023-05-07T08:21:03;26.00;50.50
74359;DHT22;62792;46.236;6.040;2023-05-07T08:26:08;26.00;50.20
74359;DHT22;62792;46.236;6.040;2023-05-07T08:31:12;26.00;50.20
74359;DHT22;62792;46.236;6.040;2023-05-07T08:36:16;26.10;50.30
74359;DHT22;62792;46.236;6.040;2023-05-07T08:41:20;26.20;50.20
74359;DHT22;62792;46.236;6.040;2023-05-07T08:46:25;26.20;50.30
74359;DHT22;62792;46.236;6.040;2023-05-07T08:51:28;26.30;50.00
74359;DHT22;62792;46.236;6.040;2023-05-07T08:56:32;26.30;50.00
74359;DHT22;62792;46.236;6.040;2023-05-07T09:01:37;26.40;48.90
74359;DHT22;62792;46.236;6.040;2023-05-07T09:06:40;26.50;49.00
74359;DHT22;62792;46.236;6.040;2023-05-07T09:11:43;26.40;49.00
74359;DHT22;62792;46.236;6.040;2023-05-07T09:16:47;26.60;48.80
74359;DHT22;62792;46.236;6.040;2023-05-07T09:21:57;26.50;49.10
74359;DHT22;62792;46.236;6.040;2023-05-07T09:27:01;26.50;49.10
74359;DHT22;62792;46.236;6.040;2023-05-07T09:32:06;26.60;49.00
74359;DHT22;62792;46.236;6.040;2023-05-07T09:37:10;26.60;49.00
74359;DHT22;62792;46.236;6.040;2023-05-07T09:42:15;26.70;49.00
74359;DHT22;62792;46.236;6.040;2023-05-07T09:47:19;26.60;49.00
74359;DHT22;62792;46.236;6.040;2023-05-07T09:52:23;26.70;48.80
74359;DHT22;62792;46.236;6.040;2023-05-07T09:57:27;26.60;49.00
74359;DHT22;62792;46.236;6.040;2023-05-07T10:02:31;26.50;48.80
74359;DHT22;62792;46.236;6.040;2023-05-07T10:07:36;26.60;49.10
74359;DHT22;62792;46.236;6.040;2023-05-07T10:12:38;26.60;49.00
74359;DHT22;62792;46.236;6.040;2023-05-07T10:17:44;26.60;49.00
74359;DHT22;62792;46.236;6.040;2023-05-07T10:22:47;26.50;49.10
74359;DHT22;62792;46.236;6.040;2023-05-07T10:27:51;26.50;49.20
74359;DHT22;62792;46.236;6.040;2023-05-07T10:32:56;26.50;49.00
74359;DHT22;62792;46.236;6.040;2023-05-07T10:38:07;26.50;49.20
74359;DHT22;62792;46.236;6.040;2023-05-07T10:43:10;26.40;49.30
74359;DHT22;62792;46.236;6.040;2023-05-07T10:48:15;26.40;49.40
74359;DHT22;62792;46.236;6.040;2023-05-07T10:53:24;26.50;49.40
74359;DHT22;62792;46.236;6.040;2023-05-07T10:58:30;26.40;49.40
74359;DHT22;62792;46.236;6.040;2023-05-07T11:03:35;26.40;49.20
74359;DHT22;62792;46.236;6.040;2023-05-07T11:09:19;26.40;49.20
74359;DHT22;62792;46.236;6.040;2023-05-07T11:14:42;26.40;49.40
74359;DHT22;62792;46.236;6.040;2023-05-07T11:19:51;26.40;49.40
74359;DHT22;62792;46.236;6.040;2023-05-07T11:24:54;26.50;49.20
74359;DHT22;62792;46.236;6.040;2023-05-07T11:29:57;26.40;49.00
74359;DHT22;62792;46.236;6.040;2023-05-07T11:35:02;26.40;49.30
74359;DHT22;62792;46.236;6.040;2023-05-07T11:40:05;26.40;49.20
74359;DHT22;62792;46.236;6.040;2023-05-07T11:45:09;26.40;49.30
74359;DHT22;62792;46.236;6.040;2023-05-07T11:50:14;26.40;49.10
74359;DHT22;62792;46.236;6.040;2023-05-07T11:55:17;26.30;50.30
74359;DHT22;62792;46.236;6.040;2023-05-07T12:00:21;26.40;49.20
74359;DHT22;62792;46.236;6.040;2023-05-07T12:05:25;26.30;50.00
74359;DHT22;62792;46.236;6.040;2023-05-07T12:10:28;26.30;50.00
74359;DHT22;62792;46.236;6.040;2023-05-07T12:15:31;26.30;50.20
74359;DHT22;62792;46.236;6.040;2023-05-07T12:20:35;26.30;50.10
74359;DHT22;62792;46.236;6.040;2023-05-07T12:25:39;26.30;50.00
74359;DHT22;62792;46.236;6.040;2023-05-07T12:30:45;26.20;50.10
74359;DHT22;62792;46.236;6.040;2023-05-07T12:35:50;26.20;50.20
74359;DHT22;62792;46.236;6.040;2023-05-07T12:40:53;26.20;50.20
74359;DHT22;62792;46.236;6.040;2023-05-07T12:45:57;26.20;50.40
74359;DHT22;62792;46.236;6.040;2023-05-07T12:51:04;26.20;50.00
74359;DHT22;62792;46.236;6.040;2023-05-07T12:56:08;26.10;50.40
74359;DHT22;62792;46.236;6.040;2023-05-07T13:01:11;26.10;50.40
74359;DHT22;62792;46.236;6.040;2023-05-07T13:06:18;26.10;50.10
74359;DHT22;62792;46.236;6.040;2023-05-07T13:11:23;26.10;50.20
74359;DHT22;62792;46.236;6.040;2023-05-07T13:16:26;26.10;50.40
74359;DHT22;62792;46.236;6.040;2023-05-07T13:21:30;26.10;50.60
74359;DHT22;62792;46.236;6.040;2023-05-07T13:26:34;26.10;50.70
74359;DHT22;62792;46.236;6.040;2023-05-07T13:31:37;26.00;50.80
74359;DHT22;62792;46.236;6.040;2023-05-07T13:36:45;26.00;50.80
74359;DHT22;62792;46.236;6.040;2023-05-07T13:41:48;26.10;50.90
74359;DHT22;62792;46.236;6.040;2023-05-07T13:46:51;26.00;51.00
74359;DHT22;62792;46.236;6.040;2023-05-07T13:51:55;26.10;50.80
74359;DHT22;62792;46.236;6.040;2023-05-07T13:56:58;26.00;50.80
74359;DHT22;62792;46.236;6.040;2023-05-07T14:02:01;26.00;51.10
74359;DHT22;62792;46.236;6.040;2023-05-07T14:07:05;26.00;51.30
74359;DHT22;62792;46.236;6.040;2023-05-07T14:12:08;26.00;51.10
74359;DHT22;62792;46.236;6.040;2023-05-07T14:17:11;26.00;51.00
74359;DHT22;62792;46.236;6.040;2023-05-07T14:22:15;26.10;51.10
74359;DHT22;62792;46.236;6.040;2023-05-07T14:27:18;26.10;51.10
74359;DHT22;62792;46.236;6.040;2023-05-07T14:32:21;26.20;51.10
74359;DHT22;62792;46.236;6.040;2023-05-07T14:37:25;26.10;51.00
74359;DHT22;62792;46.236;6.040;2023-05-07T14:42:28;26.10;51.00
74359;DHT22;62792;46.236;6.040;2023-05-07T14:47:31;26.00;51.00
74359;DHT22;62792;46.236;6.040;2023-05-07T14:52:36;26.10;51.10
74359;DHT22;62792;46.236;6.040;2023-05-07T14:57:38;26.00;51.30
74359;DHT22;62792;46.236;6.040;2023-05-07T15:02:41;26.00;51.20
74359;DHT22;62792;46.236;6.040;2023-05-07T15:07:46;26.00;51.10
74359;DHT22;62792;46.236;6.040;2023-05-07T15:12:49;26.00;51.30
74359;DHT22;62792;46.236;6.040;2023-05-07T15:17:52;26.00;51.50
74359;DHT22;62792;46.236;6.040;2023-05-07T15:22:57;26.00;51.30
74359;DHT22;62792;46.236;6.040;2023-05-07T15:28:00;26.10;51.40
74359;DHT22;62792;46.236;6.040;2023-05-07T15:33:02;26.00;51.30
74359;DHT22;62792;46.236;6.040;2023-05-07T15:38:07;25.90;51.40
74359;DHT22;62792;46.236;6.040;2023-05-07T15:43:10;26.00;51.50
74359;DHT22;62792;46.236;6.040;2023-05-07T15:48:13;25.90;51.40
74359;DHT22;62792;46.236;6.040;2023-05-07T15:53:18;25.90;51.60
74359;DHT22;62792;46.236;6.040;2023-05-07T15:58:21;26.00;51.20
74359;DHT22;62792;46.236;6.040;2023-05-07T16:03:24;26.00;51.30
74359;DHT22;62792;46.236;6.040;2023-05-07T16:08:31;26.00;51.40
74359;DHT22;62792;46.236;6.040;2023-05-07T16:13:34;26.00;51.30
74359;DHT22;62792;46.236;6.040;2023-05-07T16:18:37;26.00;51.50
74359;DHT22;62792;46.236;6.040;2023-05-07T16:23:41;26.00;51.60
74359;DHT22;62792;46.236;6.040;2023-05-07T16:28:44;26.10;51.50
74359;DHT22;62792;46.236;6.040;2023-05-07T16:33:47;25.90;51.50
74359;DHT22;62792;46.236;6.040;2023-05-07T16:38:51;25.90;51.60
74359;DHT22;62792;46.236;6.040;2023-05-07T16:43:54;25.90;51.30
74359;DHT22;62792;46.236;6.040;2023-05-07T16:48:58;25.90;51.50
74359;DHT22;62792;46.236;6.040;2023-05-07T16:54:02;25.80;51.80
74359;DHT22;62792;46.236;6.040;2023-05-07T16:59:05;25.90;51.70
74359;DHT22;62792;46.236;6.040;2023-05-07T17:04:08;25.90;51.60
74359;DHT22;62792;46.236;6.040;2023-05-07T17:09:12;25.80;51.70
74359;DHT22;62792;46.236;6.040;2023-05-07T17:14:15;25.80;51.70
74359;DHT22;62792;46.236;6.040;2023-05-07T17:19:18;25.80;51.80
74359;DHT22;62792;46.236;6.040;2023-05-07T17:24:22;25.80;51.70
74359;DHT22;62792;46.236;6.040;2023-05-07T17:29:24;25.80;52.00
74359;DHT22;62792;46.236;6.040;2023-05-07T17:34:27;25.80;51.80
74359;DHT22;62792;46.236;6.040;2023-05-07T17:39:33;25.70;52.20
74359;DHT22;62792;46.236;6.040;2023-05-07T17:44:36;25.80;52.20
74359;DHT22;62792;46.236;6.040;2023-05-07T17:49:38;25.80;52.10
74359;DHT22;62792;46.236;6.040;2023-05-07T17:54:43;25.70;52.00
74359;DHT22;62792;46.236;6.040;2023-05-07T17:59:46;25.80;52.10
74359;DHT22;62792;46.236;6.040;2023-05-07T18:04:49;25.70;51.90
74359;DHT22;62792;46.236;6.040;2023-05-07T18:09:53;25.70;52.00
74359;DHT22;62792;46.236;6.040;2023-05-07T18:14:56;25.70;52.00
74359;DHT22;62792;46.236;6.040;2023-05-07T18:19:59;25.60;52.10
74359;DHT22;62792;46.236;6.040;2023-05-07T18:25:04;25.70;52.10
74359;DHT22;62792;46.236;6.040;2023-05-07T18:30:08;25.70;52.10
74359;DHT22;62792;46.236;6.040;2023-05-07T18:35:12;25.60;52.20
74359;DHT22;62792;46.236;6.040;2023-05-07T18:40:18;25.70;52.10
74359;DHT22;62792;46.236;6.040;2023-05-07T18:45:21;25.60;52.40
74359;DHT22;62792;46.236;6.040;2023-05-07T18:50:24;25.50;52.30
74359;DHT22;62792;46.236;6.040;2023-05-07T18:55:28;25.50;52.10
74359;DHT22;62792;46.236;6.040;2023-05-07T19:00:31;25.60;52.20
74359;DHT22;62792;46.236;6.040;2023-05-07T19:05:34;25.60;52.20
74359;DHT22;62792;46.236;6.040;2023-05-07T19:10:38;25.50;52.40
74359;DHT22;62792;46.236;6.040;2023-05-07T19:15:41;25.60;52.30
74359;DHT22;62792;46.236;6.040;2023-05-07T19:20:45;25.50;52.50
74359;DHT22;62792;46.236;6.040;2023-05-07T19:25:50;25.50;52.50
74359;DHT22;62792;46.236;6.040;2023-05-07T19:30:54;25.40;52.40
74359;DHT22;62792;46.236;6.040;2023-05-07T19:35:58;25.40;52.30
74359;DHT22;62792;46.236;6.040;2023-05-07T19:41:03;25.50;52.50
74359;DHT22;62792;46.236;6.040;2023-05-07T19:46:06;25.50;52.70
74359;DHT22;62792;46.236;6.040;2023-05-07T19:51:09;25.40;52.70
74359;DHT22;62792;46.236;6.040;2023-05-07T19:56:13;25.40;52.50
74359;DHT22;62792;46.236;6.040;2023-05-07T20:01:16;25.40;52.50
74359;DHT22;62792;46.236;6.040;2023-05-07T20:06:19;25.40;52.60
74359;DHT22;62792;46.236;6.040;2023-05-07T20:11:25;25.40;52.60
74359;DHT22;62792;46.236;6.040;2023-05-07T20:16:28;25.40;52.50
74359;DHT22;62792;46.236;6.040;2023-05-07T20:21:31;25.40;52.60
74359;DHT22;62792;46.236;6.040;2023-05-07T20:26:36;25.40;52.60
74359;DHT22;62792;46.236;6.040;2023-05-07T20:31:39;25.40;52.40
74359;DHT22;62792;46.236;6.040;2023-05-07T20:36:42;25.40;52.50
74359;DHT22;62792;46.236;6.040;2023-05-07T20:41:49;25.30;52.60
74359;DHT22;62792;46.236;6.040;2023-05-07T20:46:53;25.30;52.60
74359;DHT22;62792;46.236;6.040;2023-05-07T20:51:56;25.30;52.80
74359;DHT22;62792;46.236;6.040;2023-05-07T20:57:00;25.30;52.70
74359;DHT22;62792;46.236;6.040;2023-05-07T21:02:03;25.40;52.70
74359;DHT22;62792;46.236;6.040;2023-05-07T21:07:06;25.20;52.70
74359;DHT22;62792;46.236;6.040;2023-05-07T21:12:11;25.30;52.70
74359;DHT22;62792;46.236;6.040;2023-05-07T21:17:15;25.30;52.90
74359;DHT22;62792;46.236;6.040;2023-05-07T21:22:18;25.30;52.60
74359;DHT22;62792;46.236;6.040;2023-05-07T21:27:22;25.20;52.70
74359;DHT22;62792;46.236;6.040;2023-05-07T21:32:25;25.30;52.70
74359;DHT22;62792;46.236;6.040;2023-05-07T21:37:28;25.20;52.80
74359;DHT22;62792;46.236;6.040;2023-05-07T21:42:32;25.20;52.90
74359;DHT22;62792;46.236;6.040;2023-05-07T21:47:35;25.30;52.80
74359;DHT22;62792;46.236;6.040;2023-05-07T21:52:38;25.20;52.80
74359;DHT22;62792;46.236;6.040;2023-05-07T21:57:42;25.20;52.90
74359;DHT22;62792;46.236;6.040;2023-05-07T22:03:02;25.20;52.80
74359;DHT22;62792;46.236;6.040;2023-05-07T22:08:05;25.20;52.70
74359;DHT22;62792;46.236;6.040;2023-05-07T22:13:09;25.20;52.90
74359;DHT22;62792;46.236;6.040;2023-05-07T22:18:12;25.20;52.90
74359;DHT22;62792;46.236;6.040;2023-05-07T22:23:15;25.20;52.80
74359;DHT22;62792;46.236;6.040;2023-05-07T22:28:19;25.20;52.90
74359;DHT22;62792;46.236;6.040;2023-05-07T22:33:22;25.20;52.90
74359;DHT22;62792;46.236;6.040;2023-05-07T22:38:25;25.20;52.90
74359;DHT22;62792;46.236;6.040;2023-05-07T22:43:31;25.20;52.90
74359;DHT22;62792;46.236;6.040;2023-05-07T22:48:34;25.20;53.00
74359;DHT22;62792;46.236;6.040;2023-05-07T22:53:37;25.10;53.00
74359;DHT22;62792;46.236;6.040;2023-05-07T22:58:41;25.20;53.10
74359;DHT22;62792;46.236;6.040;2023-05-07T23:03:44;25.20;53.00
74359;DHT22;62792;46.236;6.040;2023-05-07T23:08:47;25.20;52.90
74359;DHT22;62792;46.236;6.040;2023-05-07T23:13:51;25.20;53.00
74359;DHT22;62792;46.236;6.040;2023-05-07T23:18:54;25.20;53.20
74359;DHT22;62792;46.236;6.040;2023-05-07T23:23:57;25.10;53.20
74359;DHT22;62792;46.236;6.040;2023-05-07T23:29:01;25.10;53.20
74359;DHT22;62792;46.236;6.040;2023-05-07T23:34:05;25.10;53.10
74359;DHT22;62792;46.236;6.040;2023-05-07T23:39:07;25.20;53.20
74359;DHT22;62792;46.236;6.040;2023-05-07T23:44:12;25.10;53.10
74359;DHT22;62792;46.236;6.040;2023-05-07T23:49:17;25.20;53.10
74359;DHT22;62792;46.236;6.040;2023-05-07T23:54:20;25.10;53.20
74359;DHT22;62792;46.236;6.040;2023-05-07T23:59:24;25.00;53.20
